createdAt,value
2023-02-21T00:01:46.770Z,3.95
2023-02-21T00:04:32.587Z,3.67
2023-02-21T00:07:18.479Z,3.15
2023-02-21T00:10:03.553Z,3.17
2023-02-21T00:12:48.766Z,2.20
2023-02-21T00:15:34.310Z,2.80
2023-02-21T00:18:19.350Z,3.05
2023-02-21T00:21:04.904Z,1.88
2023-02-21T00:23:54.483Z,2.65
2023-02-21T00:26:41.370Z,2.10
2023-02-21T00:29:27.653Z,2.42
2023-02-21T00:32:13.170Z,2.50
2023-02-21T00:34:58.316Z,2.00
2023-02-21T00:37:43.494Z,1.98
2023-02-21T00:40:32.403Z,1.98
2023-02-21T00:43:17.537Z,2.33
2023-02-21T00:46:03.126Z,2.63
2023-02-21T00:48:48.558Z,1.95
2023-02-21T00:51:34.682Z,2.10
2023-02-21T00:54:20.219Z,2.17
2023-02-21T00:57:05.720Z,1.83
2023-02-21T00:59:51.160Z,1.90
2023-02-21T01:02:36.321Z,1.83
2023-02-21T01:05:21.738Z,1.70
2023-02-21T01:08:07.100Z,2.20
2023-02-21T01:10:52.308Z,2.58
2023-02-21T01:13:37.461Z,1.70
2023-02-21T01:16:26.115Z,1.70
2023-02-21T01:19:11.188Z,1.85
2023-02-21T01:21:56.267Z,1.98
2023-02-21T01:24:41.764Z,1.95
2023-02-21T01:27:27.445Z,1.90
2023-02-21T01:30:13.153Z,2.00
2023-02-21T01:32:58.587Z,2.05
2023-02-21T01:35:44.187Z,2.28
2023-02-21T01:38:29.364Z,1.80
2023-02-21T01:41:14.842Z,1.60
2023-02-21T01:44:16.773Z,1.98
2023-02-21T01:47:02.010Z,1.92
2023-02-21T01:49:48.106Z,2.17
2023-02-21T01:52:33.266Z,1.70
2023-02-21T01:55:18.660Z,1.80
2023-02-21T01:58:05.140Z,2.42
2023-02-21T02:00:50.760Z,1.80
2023-02-21T02:03:38.449Z,1.63
2023-02-21T02:06:27.382Z,1.63
2023-02-21T02:09:12.964Z,2.00
2023-02-21T02:12:07.318Z,1.98
2023-02-21T02:14:39.807Z,1.75
2023-02-21T02:17:25.359Z,1.88
2023-02-21T02:20:10.405Z,1.80
2023-02-21T02:22:58.756Z,1.80
2023-02-21T02:25:43.373Z,1.92
2023-02-21T02:28:16.077Z,1.58
2023-02-21T02:30:54.832Z,1.98
2023-02-21T02:33:58.609Z,1.75
2023-02-21T02:36:34.787Z,1.70
2023-02-21T02:39:19.054Z,1.42
2023-02-21T02:42:00.506Z,1.50
2023-02-21T02:44:42.760Z,1.67
2023-02-21T02:47:19.575Z,0.98
2023-02-21T02:49:48.277Z,1.40
2023-02-21T02:52:14.897Z,1.65
2023-02-21T02:54:41.671Z,1.33
2023-02-21T02:57:13.145Z,1.70
2023-02-21T02:59:44.827Z,1.15
2023-02-21T03:02:24.311Z,1.23
2023-02-21T03:05:31.060Z,1.10
2023-02-21T03:08:12.977Z,1.60
2023-02-21T03:10:58.852Z,1.50
2023-02-21T03:13:40.950Z,1.52
2023-02-21T03:16:28.604Z,1.70
2023-02-21T03:19:01.678Z,1.73
2023-02-21T03:21:36.400Z,2.45
2023-02-21T03:24:05.907Z,1.60
2023-02-21T03:26:36.276Z,1.80
2023-02-21T03:29:04.907Z,1.98
2023-02-21T03:31:37.950Z,1.85
2023-02-21T03:34:05.023Z,2.28
2023-02-21T03:36:32.912Z,2.03
2023-02-21T03:38:59.537Z,2.40
2023-02-21T03:41:26.269Z,2.10
2023-02-21T03:43:53.133Z,2.15
2023-02-21T03:46:20.225Z,2.33
2023-02-21T03:48:46.895Z,2.03
2023-02-21T03:51:14.062Z,1.80
2023-02-21T03:53:40.800Z,1.95
2023-02-21T03:56:08.459Z,1.67
2023-02-21T03:58:36.955Z,2.22
2023-02-21T04:01:05.046Z,1.58
2023-02-21T04:03:31.703Z,1.90
2023-02-21T04:05:58.430Z,2.13
2023-02-21T04:08:25.135Z,2.10
2023-02-21T04:10:52.834Z,2.17
2023-02-21T04:13:20.263Z,2.05
2023-02-21T04:15:47.100Z,2.10
2023-02-21T04:18:13.715Z,1.67
2023-02-21T04:20:40.353Z,1.75
2023-02-21T04:23:06.946Z,1.60
2023-02-21T04:25:33.660Z,1.30
2023-02-21T04:28:00.490Z,1.63
2023-02-21T04:30:27.181Z,1.40
2023-02-21T04:32:54.013Z,1.90
2023-02-21T04:35:20.802Z,2.63
2023-02-21T04:37:47.821Z,2.10
2023-02-21T04:40:14.612Z,1.55
2023-02-21T04:42:41.320Z,1.48
2023-02-21T04:45:08.386Z,1.92
2023-02-21T04:47:35.134Z,2.38
2023-02-21T04:50:02.175Z,2.00
2023-02-21T04:52:29.003Z,1.55
2023-02-21T04:54:56.045Z,2.30
2023-02-21T04:57:22.730Z,2.33
2023-02-21T04:59:49.727Z,2.35
2023-02-21T05:02:16.456Z,2.95
2023-02-21T05:04:43.268Z,2.63
2023-02-21T05:07:10.265Z,3.13
2023-02-21T05:09:36.931Z,2.55
2023-02-21T05:12:03.791Z,2.92
2023-02-21T05:14:30.508Z,2.70
2023-02-21T05:16:57.128Z,2.88
2023-02-21T05:19:27.803Z,2.53
2023-02-21T05:21:59.636Z,3.25
2023-02-21T05:24:28.191Z,3.72
2023-02-21T05:26:55.222Z,8.88
2023-02-21T05:29:22.204Z,3.47
2023-02-21T05:31:49.160Z,4.10
2023-02-21T05:34:17.456Z,3.90
2023-02-21T05:36:44.156Z,2.47
2023-02-21T05:39:10.853Z,2.25
2023-02-21T05:41:38.136Z,2.28
2023-02-21T05:44:05.257Z,2.38
2023-02-21T05:46:34.260Z,2.78
2023-02-21T05:49:03.038Z,2.97
2023-02-21T05:51:35.883Z,3.92
2023-02-21T05:54:02.653Z,3.70
2023-02-21T05:56:29.343Z,3.15
2023-02-21T05:58:56.127Z,4.22
2023-02-21T06:01:22.867Z,3.83
2023-02-21T06:03:49.651Z,4.03
2023-02-21T06:06:16.933Z,3.55
2023-02-21T06:08:48.318Z,3.33
2023-02-21T06:11:21.849Z,3.03
2023-02-21T06:13:51.538Z,2.67
2023-02-21T06:16:18.683Z,3.45
2023-02-21T06:18:45.516Z,1.83
2023-02-21T06:21:14.734Z,2.40
2023-02-21T06:23:41.893Z,2.63
2023-02-21T06:26:08.678Z,2.75
2023-02-21T06:28:35.662Z,2.72
2023-02-21T06:31:03.903Z,2.10
2023-02-21T06:33:31.060Z,2.95
2023-02-21T06:35:57.720Z,2.95
2023-02-21T06:38:27.455Z,4.25
2023-02-21T06:40:54.465Z,4.07
2023-02-21T06:43:21.154Z,3.55
2023-02-21T06:45:47.892Z,3.22
2023-02-21T06:48:18.232Z,3.58
2023-02-21T06:50:46.159Z,4.15
2023-02-21T06:53:13.213Z,3.53
2023-02-21T06:55:40.000Z,6.05
2023-02-21T06:58:08.527Z,5.65
2023-02-21T07:00:35.435Z,4.07
2023-02-21T07:03:02.329Z,4.60
2023-02-21T07:05:34.496Z,3.78
2023-02-21T07:08:02.515Z,2.80
2023-02-21T07:10:29.879Z,2.47
2023-02-21T07:12:56.821Z,2.80
2023-02-21T07:15:23.817Z,1.75
2023-02-21T07:17:50.675Z,2.72
2023-02-21T07:20:17.629Z,2.10
2023-02-21T07:22:44.313Z,1.85
2023-02-21T07:25:16.231Z,2.47
2023-02-21T07:27:43.371Z,2.30
2023-02-21T07:30:11.798Z,2.42
2023-02-21T07:32:38.477Z,2.63
2023-02-21T07:35:05.313Z,2.88
2023-02-21T07:37:32.190Z,3.45
2023-02-21T07:39:59.190Z,3.40
2023-02-21T07:42:25.993Z,3.33
2023-02-21T07:44:59.266Z,3.97
2023-02-21T07:47:26.477Z,3.85
2023-02-21T07:49:54.406Z,3.42
2023-02-21T07:52:22.867Z,3.80
2023-02-21T07:54:50.135Z,3.90
2023-02-21T07:57:18.538Z,3.28
2023-02-21T07:59:45.414Z,3.10
2023-02-21T08:02:12.650Z,2.85
2023-02-21T08:04:40.256Z,2.65
2023-02-21T08:07:08.104Z,2.42
2023-02-21T08:09:36.646Z,2.33
2023-02-21T08:12:04.005Z,2.58
2023-02-21T08:14:30.658Z,1.60
2023-02-21T08:16:57.353Z,1.40
2023-02-21T08:19:24.335Z,1.75
2023-02-21T08:21:51.410Z,1.30
2023-02-21T08:24:19.125Z,1.73
2023-02-21T08:26:46.431Z,1.40
2023-02-21T08:29:14.089Z,2.45
2023-02-21T08:31:43.972Z,1.45
2023-02-21T08:34:11.518Z,1.30
2023-02-21T08:36:41.867Z,1.55
2023-02-21T08:39:10.110Z,1.60
2023-02-21T08:41:48.790Z,1.40
2023-02-21T08:44:17.183Z,1.40
2023-02-21T08:46:47.365Z,1.25
2023-02-21T08:49:15.109Z,1.60
2023-02-21T08:51:42.631Z,1.15
2023-02-21T08:54:09.391Z,1.45
2023-02-21T08:56:36.086Z,1.40
2023-02-21T08:59:03.880Z,1.40
2023-02-21T09:01:34.024Z,1.35
2023-02-21T09:04:02.221Z,1.30
2023-02-21T09:06:29.189Z,1.30
2023-02-21T09:08:56.097Z,1.40
2023-02-21T09:11:22.889Z,1.33
2023-02-21T09:13:49.679Z,1.30
2023-02-21T09:16:16.419Z,1.45
2023-02-21T09:18:43.110Z,0.98
2023-02-21T09:21:09.802Z,1.45
2023-02-21T09:23:36.435Z,1.20
2023-02-21T09:26:03.114Z,1.30
2023-02-21T09:28:31.685Z,1.30
2023-02-21T09:30:58.439Z,1.00
2023-02-21T09:33:25.390Z,1.25
2023-02-21T09:35:54.090Z,1.00
2023-02-21T09:38:20.881Z,0.90
2023-02-21T09:40:56.815Z,1.23
2023-02-21T09:43:36.849Z,1.70
2023-02-21T09:46:21.417Z,1.20
2023-02-21T09:48:49.553Z,1.10
2023-02-21T09:51:17.528Z,1.60
2023-02-21T09:53:47.252Z,1.00
2023-02-21T09:56:28.263Z,0.85
2023-02-21T09:58:57.032Z,1.15
2023-02-21T10:01:49.906Z,1.00
2023-02-21T10:04:22.682Z,1.55
2023-02-21T10:06:55.648Z,0.90
2023-02-21T10:09:45.840Z,1.05
2023-02-21T10:12:35.805Z,1.23
2023-02-21T10:15:23.783Z,0.90
2023-02-21T10:17:58.902Z,1.52
2023-02-21T10:20:49.702Z,0.85
2023-02-21T10:23:24.821Z,0.95
2023-02-21T10:25:57.118Z,1.00
2023-02-21T10:28:26.378Z,0.98
2023-02-21T10:30:58.819Z,1.05
2023-02-21T10:33:25.697Z,1.08
2023-02-21T10:35:55.123Z,1.55
2023-02-21T10:38:27.498Z,1.40
2023-02-21T10:40:57.265Z,0.93
2023-02-21T10:43:36.504Z,1.52
2023-02-21T10:46:19.997Z,1.30
2023-02-21T10:48:50.216Z,1.20
2023-02-21T10:51:29.107Z,1.00
2023-02-21T10:54:19.692Z,1.48
2023-02-21T10:56:48.597Z,1.10
2023-02-21T10:59:32.477Z,0.77
2023-02-21T11:02:01.675Z,1.17
2023-02-21T11:04:35.044Z,1.17
2023-02-21T11:07:09.528Z,1.27
2023-02-21T11:09:43.467Z,0.93
2023-02-21T11:12:16.066Z,1.00
2023-02-21T11:14:45.859Z,1.00
2023-02-21T11:17:21.433Z,1.10
2023-02-21T11:19:49.863Z,1.20
2023-02-21T11:22:21.736Z,1.15
2023-02-21T11:25:05.501Z,1.20
2023-02-21T11:27:36.194Z,1.55
2023-02-21T11:30:14.218Z,0.90
2023-02-21T11:32:43.245Z,1.20
2023-02-21T11:35:31.818Z,1.35
2023-02-21T11:38:05.304Z,0.85
2023-02-21T11:40:42.719Z,1.17
2023-02-21T11:43:13.332Z,1.20
2023-02-21T11:45:49.204Z,1.17
2023-02-21T11:48:20.421Z,1.02
2023-02-21T11:50:51.982Z,1.25
2023-02-21T11:53:32.357Z,0.90
2023-02-21T11:56:26.429Z,0.90
2023-02-21T11:59:02.218Z,1.17
2023-02-21T12:01:35.980Z,1.20
2023-02-21T12:04:51.144Z,1.17
2023-02-21T12:07:45.011Z,1.20
2023-02-21T12:10:40.909Z,1.63
2023-02-21T12:13:36.666Z,2.45
2023-02-21T12:16:11.233Z,2.17
2023-02-21T12:18:49.995Z,1.25
2023-02-21T12:21:54.612Z,1.75
2023-02-21T12:24:31.248Z,0.90
2023-02-21T12:27:02.696Z,1.00
2023-02-21T12:29:45.173Z,1.05
2023-02-21T12:32:33.274Z,1.20
2023-02-21T12:35:31.420Z,1.10
2023-02-21T12:38:04.517Z,1.17
2023-02-21T12:40:45.687Z,0.93
2023-02-21T12:43:28.519Z,1.02
2023-02-21T12:46:16.205Z,0.93
2023-02-21T12:48:52.802Z,0.93
2023-02-21T12:51:25.636Z,1.60
2023-02-21T12:54:01.478Z,1.02
2023-02-21T12:56:40.240Z,0.85
2023-02-21T12:59:18.897Z,0.90
2023-02-21T13:01:50.772Z,1.10
2023-02-21T13:04:32.082Z,1.10
2023-02-21T13:07:07.127Z,1.00
2023-02-21T13:09:39.244Z,1.00
2023-02-21T13:12:12.891Z,1.20
2023-02-21T13:14:49.573Z,1.13
2023-02-21T13:17:17.921Z,1.05
2023-02-21T13:19:50.353Z,1.23
2023-02-21T13:23:13.157Z,1.50
2023-02-21T13:28:28.316Z,1.00
2023-02-21T13:31:00.817Z,1.00
2023-02-21T13:33:46.255Z,1.08
2023-02-21T13:36:27.427Z,1.20
2023-02-21T13:39:22.174Z,0.98
2023-02-21T13:41:56.007Z,0.88
2023-02-21T13:44:34.451Z,1.38
2023-02-21T13:47:05.542Z,0.90
2023-02-21T13:49:59.334Z,1.33
2023-02-21T13:52:36.041Z,1.30
2023-02-21T13:55:14.765Z,1.40
2023-02-21T13:58:00.438Z,0.90
2023-02-21T14:00:27.634Z,1.08
2023-02-21T14:03:07.206Z,1.42
2023-02-21T14:05:52.384Z,1.52
2023-02-21T14:08:27.926Z,1.33
2023-02-21T14:11:01.611Z,1.35
2023-02-21T14:13:54.615Z,1.20
2023-02-21T14:16:24.450Z,1.55
2023-02-21T14:18:59.774Z,1.38
2023-02-21T14:21:39.526Z,1.60
2023-02-21T14:24:12.094Z,1.67
2023-02-21T14:26:50.366Z,1.90
2023-02-21T14:29:35.259Z,3.08
2023-02-21T14:32:05.221Z,1.30
2023-02-21T14:34:42.759Z,2.40
2023-02-21T14:37:33.228Z,1.80
2023-02-21T14:40:02.098Z,1.58
2023-02-21T14:42:43.560Z,1.70
2023-02-21T14:45:10.279Z,2.05
2023-02-21T14:47:51.659Z,1.85
2023-02-21T14:50:43.958Z,1.05
2023-02-21T14:56:17.351Z,0.90
2023-02-21T14:58:46.768Z,1.85
2023-02-21T15:01:19.381Z,2.55
2023-02-21T15:04:00.629Z,2.40
2023-02-21T15:06:29.730Z,2.90
2023-02-21T15:08:56.383Z,2.40
2023-02-21T15:11:38.270Z,3.28
2023-02-21T15:14:25.734Z,2.20
2023-02-21T15:16:55.399Z,1.80
2023-02-21T15:19:31.942Z,1.67
2023-02-21T15:22:19.045Z,2.00
2023-02-21T15:25:08.418Z,1.67
2023-02-21T15:27:50.982Z,2.22
2023-02-21T15:30:22.745Z,2.33
2023-02-21T15:33:05.754Z,1.55
2023-02-21T15:35:55.888Z,2.10
2023-02-21T15:38:40.816Z,2.17
2023-02-21T15:41:18.337Z,2.40
2023-02-21T15:43:57.017Z,2.30
2023-02-21T15:46:33.051Z,2.60
2023-02-21T15:49:04.043Z,3.22
2023-02-21T15:51:31.876Z,2.83
2023-02-21T15:54:09.853Z,2.40
2023-02-21T15:56:36.764Z,2.28
2023-02-21T15:59:11.105Z,2.30
2023-02-21T16:01:38.244Z,2.42
2023-02-21T16:04:22.903Z,2.78
2023-02-21T16:06:56.064Z,3.25
2023-02-21T16:09:31.353Z,2.92
2023-02-21T16:12:26.805Z,3.00
2023-02-21T16:14:59.760Z,2.50
2023-02-21T16:17:36.835Z,3.08
2023-02-21T16:20:16.801Z,3.28
2023-02-21T16:23:08.099Z,2.90
2023-02-21T16:25:35.094Z,4.03
2023-02-21T16:28:02.199Z,3.15
2023-02-21T16:30:30.935Z,3.05
2023-02-21T16:33:04.127Z,2.60
2023-02-21T16:35:32.209Z,2.92
2023-02-21T16:38:00.878Z,2.50
2023-02-21T16:40:36.509Z,3.05
2023-02-21T16:43:04.937Z,3.13
2023-02-21T16:45:32.388Z,2.88
2023-02-21T16:48:02.655Z,2.75
2023-02-21T16:50:39.020Z,2.40
2023-02-21T16:53:05.977Z,2.20
2023-02-21T16:55:32.790Z,3.83
2023-02-21T16:58:15.849Z,3.72
2023-02-21T17:00:42.587Z,3.58
2023-02-21T17:03:09.205Z,3.22
2023-02-21T17:05:36.014Z,3.38
2023-02-21T17:08:03.241Z,4.32
2023-02-21T17:10:32.704Z,4.88
2023-02-21T17:13:00.968Z,6.78
2023-02-21T17:15:28.041Z,8.07
2023-02-21T17:17:54.784Z,9.05
2023-02-21T17:20:23.382Z,8.45
2023-02-21T17:22:51.331Z,9.23
2023-02-21T17:25:19.447Z,8.77
2023-02-21T17:27:46.286Z,8.95
2023-02-21T17:30:14.006Z,8.18
2023-02-21T17:32:40.749Z,17.92
2023-02-21T17:35:07.741Z,10.05
2023-02-21T17:37:34.510Z,8.95
2023-02-21T17:40:01.106Z,9.27
2023-02-21T17:42:27.696Z,9.80
2023-02-21T17:44:55.061Z,9.40
2023-02-21T17:47:23.365Z,10.45
2023-02-21T17:49:51.328Z,9.18
2023-02-21T17:52:18.075Z,7.82
2023-02-21T17:54:44.822Z,9.15
2023-02-21T17:57:11.986Z,8.45
2023-02-21T17:59:39.494Z,8.88
2023-02-21T18:02:08.181Z,9.35
2023-02-21T18:04:37.906Z,9.43
2023-02-21T18:07:04.535Z,9.90
2023-02-21T18:09:31.553Z,9.27
2023-02-21T18:11:59.805Z,10.30
2023-02-21T18:14:30.338Z,8.50
2023-02-21T18:16:58.237Z,8.63
2023-02-21T18:19:25.313Z,8.68
2023-02-21T18:21:52.168Z,9.02
2023-02-21T18:24:19.250Z,9.48
2023-02-21T18:26:46.672Z,13.55
2023-02-21T18:29:13.458Z,11.30
2023-02-21T18:31:40.078Z,12.90
2023-02-21T18:34:07.716Z,9.40
2023-02-21T18:36:35.524Z,9.77
2023-02-21T18:39:02.725Z,7.90
2023-02-21T18:41:29.369Z,7.75
2023-02-21T18:43:56.016Z,7.88
2023-02-21T18:46:23.991Z,7.18
2023-02-21T18:48:51.281Z,6.75
2023-02-21T18:51:20.070Z,5.75
2023-02-21T18:53:48.709Z,6.40
2023-02-21T18:56:21.656Z,5.50
2023-02-21T18:58:49.693Z,6.10
2023-02-21T19:01:19.289Z,7.05
2023-02-21T19:03:46.224Z,7.22
2023-02-21T19:06:15.993Z,7.60
2023-02-21T19:08:42.613Z,7.22
2023-02-21T19:11:09.314Z,6.93
2023-02-21T19:13:35.918Z,9.88
2023-02-21T19:16:02.606Z,8.20
2023-02-21T19:18:30.664Z,7.55
2023-02-21T19:20:58.012Z,5.32
2023-02-21T19:23:27.463Z,6.38
2023-02-21T19:25:55.526Z,6.45
2023-02-21T19:28:24.122Z,6.10
2023-02-21T19:30:51.285Z,7.13
2023-02-21T19:33:18.088Z,8.43
2023-02-21T19:35:45.879Z,6.57
2023-02-21T19:38:12.507Z,6.18
2023-02-21T19:40:39.196Z,6.40
2023-02-21T19:43:06.616Z,6.40
2023-02-21T19:45:33.877Z,6.38
2023-02-21T19:48:01.117Z,5.53
2023-02-21T19:50:30.757Z,5.82
2023-02-21T19:53:01.325Z,4.55
2023-02-21T19:55:30.414Z,5.03
2023-02-21T19:57:57.299Z,5.80
2023-02-21T20:00:27.153Z,5.15
2023-02-21T20:02:54.252Z,6.68
2023-02-21T20:05:20.926Z,5.80
2023-02-21T20:07:47.572Z,4.50
2023-02-21T20:10:16.602Z,4.00
2023-02-21T20:12:44.722Z,3.33
2023-02-21T20:15:11.935Z,3.30
2023-02-21T20:17:39.301Z,4.25
2023-02-21T20:20:07.760Z,3.60
2023-02-21T20:22:34.494Z,3.85
2023-02-21T20:25:02.206Z,4.35
2023-02-21T20:27:29.788Z,4.93
2023-02-21T20:29:57.902Z,5.80
2023-02-21T20:32:24.907Z,5.43
2023-02-21T20:34:56.782Z,5.30
2023-02-21T20:37:23.522Z,4.80
2023-02-21T20:39:50.429Z,4.75
2023-02-21T20:42:18.446Z,5.05
2023-02-21T20:44:45.307Z,5.32
2023-02-21T20:47:11.985Z,4.90
2023-02-21T20:49:38.904Z,5.45
2023-02-21T20:52:06.276Z,5.35
2023-02-21T20:54:32.992Z,5.53
2023-02-21T20:56:59.767Z,4.88
2023-02-21T20:59:35.117Z,5.00
2023-02-21T21:02:02.414Z,5.47
2023-02-21T21:04:35.829Z,4.88
2023-02-21T21:07:09.051Z,5.78
2023-02-21T21:09:37.656Z,5.40
2023-02-21T21:12:10.811Z,6.10
2023-02-21T21:14:41.545Z,5.78
2023-02-21T21:17:12.840Z,6.03
2023-02-21T21:19:41.524Z,6.18
2023-02-21T21:22:12.336Z,6.97
2023-02-21T21:24:41.320Z,7.65
2023-02-21T21:27:10.229Z,7.15
2023-02-21T21:29:43.102Z,7.15
2023-02-21T21:32:19.041Z,6.85
2023-02-21T21:34:54.766Z,6.88
2023-02-21T21:37:24.726Z,5.45
2023-02-21T21:39:55.039Z,5.80
2023-02-21T21:42:25.078Z,6.28
2023-02-21T21:44:53.735Z,5.60
2023-02-21T21:47:26.212Z,5.72
2023-02-21T21:49:53.015Z,5.07
2023-02-21T21:52:20.886Z,4.75
2023-02-21T21:54:48.393Z,3.97
2023-02-21T21:57:16.963Z,3.85
2023-02-21T21:59:44.298Z,3.92
2023-02-21T22:02:11.704Z,3.40
2023-02-21T22:04:39.747Z,3.90
2023-02-21T22:07:08.748Z,4.93
2023-02-21T22:09:36.160Z,4.28
2023-02-21T22:12:04.361Z,4.22
2023-02-21T22:14:30.993Z,3.65
2023-02-21T22:16:58.354Z,4.10
2023-02-21T22:19:27.239Z,3.95
2023-02-21T22:21:55.197Z,4.20
2023-02-21T22:24:24.636Z,3.83
2023-02-21T22:26:55.593Z,4.05
2023-02-21T22:29:23.248Z,3.80
2023-02-21T22:31:52.176Z,3.85
2023-02-21T22:34:25.473Z,4.40
2023-02-21T22:36:57.510Z,4.05
2023-02-21T22:39:25.520Z,4.70
2023-02-21T22:41:52.794Z,4.72
2023-02-21T22:44:19.907Z,3.60
2023-02-21T22:46:58.061Z,4.20
2023-02-21T22:49:28.311Z,4.60
2023-02-21T22:51:57.646Z,8.43
2023-02-21T22:54:25.080Z,6.85
2023-02-21T22:56:51.825Z,5.40
2023-02-21T22:59:20.827Z,4.20
2023-02-21T23:01:47.387Z,4.50
2023-02-21T23:04:25.803Z,3.90
2023-02-21T23:06:58.082Z,3.70
2023-02-21T23:09:26.255Z,3.97
2023-02-21T23:11:56.604Z,4.18
2023-02-21T23:14:23.461Z,3.17
2023-02-21T23:16:50.886Z,3.83
2023-02-21T23:19:17.693Z,3.88
2023-02-21T23:21:52.694Z,3.63
2023-02-21T23:24:21.185Z,3.25
2023-02-21T23:26:49.124Z,3.65
2023-02-21T23:29:24.145Z,3.67
2023-02-21T23:31:51.718Z,3.85
2023-02-21T23:34:19.747Z,3.53
2023-02-21T23:36:46.377Z,3.83
2023-02-21T23:39:15.203Z,3.50
2023-02-21T23:41:48.768Z,3.33
2023-02-21T23:44:16.001Z,4.10
2023-02-21T23:46:44.228Z,4.03
2023-02-21T23:49:15.721Z,3.78
2023-02-21T23:51:43.986Z,4.22
2023-02-21T23:54:11.467Z,4.15
2023-02-21T23:56:40.191Z,3.60
2023-02-21T23:59:07.313Z,3.72
